Latest Weather Observations for Holmes Reef

IDQ60801

Issued at 12:32 pm EST Monday 21 August 2017 (issued every 30 minutes, with the page automatically refreshed every 10 minutes)

About weather observations | Map of weather stations | Latest weather observations for QLD | Other Formats
Station Details ID: 200732 Name: HOLMES REEF Lat: -16.47 Lon: 147.87 Height: 1.9 m
Data from the previous 72 hours. | See also: Recent months at Holmes Reef
Date/Time
EST
Temp
°C
App
Temp
°C
Dew
Point
°C
Rel
Hum
%
Delta-T
°C
Wind Press
QNH
hPa
Press
MSL
hPa
Rain since
9am
mm
Dir  Spd
km/h
Gust
km/h
Spd
kts
Gust
kts
21/12:30pm 22.6 - - - - ESE 26 32 14 17 1016.7 - -
21/12:15pm 22.7 - - - - SE 28 28 15 15 1016.8 1016.5 -
21/12:00pm 22.5 - - - - SE 28 33 15 18 1017.0 - -
21/11:30am 22.5 - - - - SE 30 35 16 19 1017.4 - -
21/11:15am 22.4 - - - - SE 30 - 16 - - 1017.3 -
21/11:00am 22.4 - - - - ESE 30 35 16 19 1017.8 - -
21/10:30am 22.6 - - - - SE 30 37 16 20 1018.1 - -
21/10:15am 22.3 - - - - SE 28 - 15 - - 1017.9 -
21/10:00am 22.2 - - - - SE 28 33 15 18 1018.3 - -
21/09:30am 22.1 - - - - SE 30 37 16 20 1018.2 - -
21/09:15am 22.2 - - - - SE 26 - 14 - - 1017.9 -
21/09:00am 22.1 - - - - SE 28 33 15 18 1018.1 - -
21/08:30am 22.1 - - - - SE 28 32 15 17 1017.9 - -
21/08:15am 22.2 - - - - SE 30 - 16 - - 1017.4 -
21/08:00am 22.2 - - - - SE 28 32 15 17 1017.6 - -
21/07:30am 22.1 - - - - SE 28 35 15 19 1017.3 - -
21/07:15am 21.9 - - - - SE 28 - 15 - - 1016.8 -
21/07:00am 21.8 - - - - SE 30 35 16 19 1016.9 - -
21/06:30am 21.9 - - - - SE 30 35 16 19 1016.5 - -
21/06:15am 21.9 - - - - SE 30 - 16 - - 1016.1 -
21/06:00am 22.0 - - - - SE 28 33 15 18 1016.2 - -
21/05:30am 22.0 - - - - ESE 28 35 15 19 1016.0 - -
21/05:15am 22.1 - - - - ESE 28 - 15 - - 1015.7 -
21/05:00am 22.0 - - - - ESE 30 35 16 19 1015.9 - -
21/04:30am 22.0 - - - - ESE 32 37 17 20 1015.6 - -
21/04:15am 22.4 - - - - ESE 28 - 15 - - 1015.3 -
21/04:00am 22.1 - - - - ESE 28 35 15 19 1015.6 - -
21/03:30am 22.1 - - - - ESE 32 35 17 19 1015.6 - -
21/03:15am 22.2 - - - - ESE 30 - 16 - - 1015.4 -
21/03:00am 22.3 - - - - ESE 30 33 16 18 1015.8 - -
21/02:30am 22.3 - - - - ESE 30 35 16 19 1016.0 - -
21/02:15am 22.3 - - - - ESE 32 - 17 - - 1015.8 -
21/02:00am 22.6 - - - - E 30 39 16 21 1016.1 - -
21/01:30am 22.2 - - - - ESE 30 35 16 19 1016.5 - -
21/01:15am 22.5 - - - - E 32 - 17 - - 1016.3 -
21/01:00am 22.3 - - - - E 30 37 16 20 1016.8 - -
21/12:30am 22.4 - - - - E 33 41 18 22 1017.0 - -
21/12:15am 22.4 - - - - ESE 32 - 17 - - 1016.7 -
21/12:00am 22.5 - - - - ESE 32 37 17 20 1017.1 - -
 
Date/Time
EST
Temp
°C
App
Temp
°C
Dew
Point
°C
Rel
Hum
%
Delta-T
°C
Wind Press
QNH
hPa
Press
MSL
hPa
Rain since
9am
mm
Dir  Spd
km/h
Gust
km/h
Spd
kts
Gust
kts
20/11:30pm 22.7 - - - - ESE 33 39 18 21 1017.2 - -
20/11:15pm 22.4 - - - - E 35 - 19 - - 1016.8 -
20/11:00pm 22.4 - - - - ESE 37 41 20 22 1017.2 - -
20/10:30pm 22.7 - - - - ESE 35 41 19 22 1017.2 - -
20/10:15pm 22.7 - - - - ESE 37 - 20 - - 1016.8 -
20/10:00pm 23.0 - - - - ESE 37 43 20 23 1017.1 - -
20/09:30pm 23.0 - - - - ESE 39 44 21 24 1016.8 - -
20/09:15pm 23.1 - - - - ESE 39 - 21 - - 1016.4 -
20/09:00pm 23.1 - - - - ESE 35 43 19 23 1016.6 - -
20/08:30pm 23.3 - - - - ESE 35 43 19 23 1016.5 - -
20/08:15pm 23.3 - - - - ESE 35 - 19 - - 1016.0 -
20/08:00pm 23.2 - - - - ESE 35 41 19 22 1016.2 - -
20/07:30pm 23.5 - - - - ESE 37 43 20 23 1015.9 - -
20/07:15pm 23.4 - - - - ESE 32 - 17 - - 1015.6 -
20/07:00pm 23.3 - - - - ESE 33 43 18 23 1015.8 - -
20/06:30pm 23.4 - - - - SE 33 39 18 21 1015.6 - -
20/06:15pm 23.5 - - - - SE 32 - 17 - - 1015.3 -
20/06:00pm 23.5 - - - - SE 32 37 17 20 1015.5 - -
20/05:30pm 23.6 - - - - SE 32 39 17 21 1015.3 - -
20/05:15pm 23.7 - - - - SE 33 - 18 - - 1014.8 -
20/05:00pm 24.0 - - - - SE 32 39 17 21 1015.0 - -
20/04:30pm 23.9 - - - - SE 33 39 18 21 1014.8 - -
20/04:15pm 24.0 - - - - SE 32 - 17 - - 1014.3 -
20/04:00pm 24.0 - - - - SE 32 39 17 21 1014.6 - -
20/03:30pm 24.1 - - - - SE 30 37 16 20 1014.4 - -
20/03:15pm 24.1 - - - - SE 33 - 18 - - 1014.0 -
20/03:00pm 24.2 - - - - SSE 32 37 17 20 1014.3 - -
20/02:30pm 23.9 - - - - SE 32 39 17 21 1014.6 - -
20/02:15pm 23.8 - - - - SE 30 - 16 - - 1014.4 -
20/02:00pm 23.9 - - - - SE 32 37 17 20 1014.9 - -
20/01:30pm 23.9 - - - - SE 32 39 17 21 1015.3 - -
20/01:15pm 24.0 - - - - SE 30 - 16 - - 1015.2 -
20/01:00pm 23.9 - - - - SE 32 39 17 21 1015.6 - -
20/12:30pm 23.8 - - - - SE 33 39 18 21 1015.9 - -
20/12:15pm 24.0 - - - - SE 30 - 16 - - 1015.8 -
20/12:00pm 23.8 - - - - SE 32 39 17 21 1016.2 - -
20/11:30am 23.9 - - - - SE 33 39 18 21 1016.7 - -
20/11:15am 24.1 - - - - SE 32 - 17 - - 1016.6 -
20/11:00am 23.9 - - - - SE 32 39 17 21 1017.1 - -
20/10:30am 23.8 - - - - SE 32 41 17 22 1017.2 - -
20/10:15am 23.7 - - - - SE 33 - 18 - - 1017.1 -
20/10:00am 23.9 - - - - SE 32 39 17 21 1017.5 - -
20/09:30am 24.0 - - - - SE 32 39 17 21 1017.4 - -
20/09:15am 23.7 - - - - SE 33 - 18 - - 1017.0 -
20/09:00am 23.8 - - - - SE 33 37 18 20 1017.3 - -
20/08:30am 23.7 - - - - SE 32 39 17 21 1017.1 - -
20/08:15am 23.8 - - - - SE 30 - 16 - - 1016.7 -
20/08:00am 23.6 - - - - SE 32 39 17 21 1016.7 - -
20/07:30am 23.6 - - - - SE 33 39 18 21 1016.4 - -
20/07:15am 23.6 - - - - SE 33 - 18 - - 1016.1 -
20/07:00am 23.7 - - - - SE 33 39 18 21 1016.3 - -
20/06:30am 23.5 - - - - SE 37 43 20 23 1015.8 - -
20/06:15am 23.5 - - - - SE 37 - 20 - - 1015.4 -
20/06:00am 23.5 - - - - SE 37 43 20 23 1015.6 - -
20/05:30am 23.6 - - - - ESE 37 44 20 24 1015.4 - -
20/05:15am 23.6 - - - - ESE 37 - 20 - - 1015.0 -
20/05:00am 23.8 - - - - ESE 35 43 19 23 1015.3 - -
20/04:30am 24.3 - - - - ESE 35 41 19 22 1015.0 - -
20/04:15am 24.0 - - - - ESE 33 - 18 - - 1014.6 -
20/04:00am 23.9 - - - - ESE 33 39 18 21 1014.9 - -
20/03:30am 23.8 - - - - ESE 35 41 19 22 1014.8 - -
20/03:15am 24.2 - - - - ESE 35 - 19 - - 1014.6 -
20/03:00am 23.8 - - - - ESE 33 39 18 21 1014.9 - -
20/02:30am 24.0 - - - - ESE 35 39 19 21 1015.1 - -
20/02:15am 24.3 - - - - ESE 32 - 17 - - 1014.9 -
20/02:00am 24.2 - - - - ESE 32 35 17 19 1015.3 - -
20/01:30am 24.0 - - - - ESE 32 37 17 20 1015.4 - -
20/01:15am 24.2 - - - - ESE 32 - 17 - - 1015.2 -
20/01:00am 24.4 - - - - ESE 32 35 17 19 1015.7 - -
20/12:30am 24.5 - - - - ESE 30 33 16 18 1015.8 - -
20/12:15am 24.1 - - - - ESE 30 - 16 - - 1015.5 -
20/12:00am 24.2 - - - - ESE 30 33 16 18 1015.7 - -
 
Date/Time
EST
Temp
°C
App
Temp
°C
Dew
Point
°C
Rel
Hum
%
Delta-T
°C
Wind Press
QNH
hPa
Press
MSL
hPa
Rain since
9am
mm
Dir  Spd
km/h
Gust
km/h
Spd
kts
Gust
kts
19/11:30pm 24.3 - - - - ESE 28 32 15 17 1015.9 - -
19/11:15pm 24.3 - - - - ESE 28 - 15 - - 1015.7 -
19/11:00pm 24.2 - - - - ESE 30 33 16 18 1016.0 - -
19/10:30pm 24.2 - - - - ESE 30 33 16 18 1016.2 - -
19/10:15pm 24.4 - - - - ESE 28 - 15 - - 1016.1 -
19/10:00pm 24.4 - - - - ESE 28 32 15 17 1016.5 - -
19/09:30pm 24.3 - - - - SE 30 35 16 19 1016.4 - -
19/09:15pm 24.4 - - - - SE 28 - 15 - - 1016.0 -
19/09:00pm 24.4 - - - - SE 28 33 15 18 1016.2 - -
19/08:30pm 24.6 - - - - SE 28 32 15 17 1016.1 - -
19/08:15pm 24.4 - - - - SE 28 - 15 - - 1015.7 -
19/08:00pm 24.6 - - - - SE 26 30 14 16 1015.9 - -
19/07:30pm 24.4 - - - - SE 28 30 15 16 1015.6 - -
19/07:15pm 24.4 - - - - SE 26 - 14 - - 1015.1 -
19/07:00pm 24.4 - - - - SE 26 32 14 17 1015.2 - -
19/06:30pm 24.7 - - - - SE 26 30 14 16 1014.9 - -
19/06:15pm 24.7 - - - - SE 26 - 14 - - 1014.4 -
19/06:00pm 24.6 - - - - SSE 26 30 14 16 1014.6 - -
19/05:30pm 24.5 - - - - SSE 24 28 13 15 1014.5 - -
19/05:15pm 24.6 - - - - SSE 22 - 12 - - 1014.1 -
19/05:00pm 24.9 - - - - SSE 24 28 13 15 1014.4 - -
19/04:30pm 24.7 - - - - SSE 24 26 13 14 1014.4 - -
19/04:15pm 24.7 - - - - SSE 22 - 12 - - 1014.1 -
19/04:00pm 25.0 - - - - SSE 20 24 11 13 1014.4 - -
19/03:30pm 24.8 - - - - SSE 20 24 11 13 1014.3 - -
19/03:15pm 24.7 - - - - SSE 20 - 11 - - 1014.0 -
19/03:00pm 25.0 - - - - SSE 22 26 12 14 1014.3 - -
19/02:30pm 25.1 - - - - SSE 24 28 13 15 1014.3 - -
19/02:15pm 24.5 - - - - SSE 26 - 14 - - 1014.1 -
19/02:00pm 24.4 - - - - SSE 26 30 14 16 1014.5 - -
19/01:30pm 24.5 - - - - SSE 24 28 13 15 1014.7 - -
19/01:15pm 24.5 - - - - SSE 28 - 15 - - 1014.6 -
19/01:00pm 24.6 - - - - SSE 26 28 14 15 1015.2 - -
19/12:30pm 24.5 - - - - SSE 24 28 13 15 1015.5 - -
19/12:15pm 24.5 - - - - SSE 26 - 14 - - 1015.3 -
19/12:00pm 24.4 - - - - SSE 24 28 13 15 1015.6 - -
19/11:30am 24.4 - - - - SSE 20 24 11 13 1015.9 - -
19/11:15am 24.5 - - - - SSE 20 - 11 - - 1015.8 -
19/11:00am 24.3 - - - - SSE 20 22 11 12 1016.2 - -
19/10:30am 24.4 - - - - SSE 22 26 12 14 1016.7 - -
19/10:15am 24.4 - - - - SSE 22 - 12 - - 1016.5 -
19/10:00am 24.5 - - - - SSE 22 24 12 13 1016.9 - -
19/09:30am 24.1 - - - - SSE 20 24 11 13 1016.8 - -
19/09:15am 24.3 - - - - SSE 22 - 12 - - 1016.5 -
19/09:00am 24.1 - - - - SSE 20 24 11 13 1016.7 - -
19/08:30am 24.0 - - - - SSE 19 20 10 11 1016.6 - -
19/08:15am 24.1 - - - - SE 17 - 9 - - 1016.1 -
19/08:00am 24.1 - - - - ESE 15 19 8 10 1016.3 - -
19/07:30am 23.7 - - - - SE 17 20 9 11 1016.0 - -
19/07:15am 23.6 - - - - SE 19 - 10 - - 1015.6 -
19/07:00am 23.6 - - - - SE 17 22 9 12 1015.7 - -
19/06:30am 23.5 - - - - SE 20 24 11 13 1015.5 - -
19/06:15am 23.5 - - - - SE 20 - 11 - - 1015.2 -
19/06:00am 23.9 - - - - SE 20 24 11 13 1015.3 - -
19/05:30am 23.6 - - - - SE 20 24 11 13 1015.1 - -
19/05:15am 23.7 - - - - ESE 19 - 10 - - 1014.7 -
19/05:00am 23.5 - - - - ESE 20 26 11 14 1014.9 - -
19/04:30am 23.5 - - - - ESE 17 20 9 11 1014.7 - -
19/04:15am 23.6 - - - - E 17 - 9 - - 1014.3 -
19/04:00am 23.6 - - - - E 17 20 9 11 1014.6 - -
19/03:30am 23.6 - - - - E 19 20 10 11 1014.8 - -
19/03:15am 23.6 - - - - E 17 - 9 - - 1014.5 -
19/03:00am 23.8 - - - - ESE 19 20 10 11 1014.8 - -
19/02:30am 23.7 - - - - ESE 19 22 10 12 1014.9 - -
19/02:15am 23.8 - - - - SE 20 - 11 - - 1014.8 -
19/02:00am 23.7 - - - - ESE 19 26 10 14 1015.3 - -
19/01:30am 23.9 - - - - ESE 22 24 12 13 1015.8 - -
19/01:15am 23.8 - - - - SE 19 - 10 - - 1015.6 -
19/01:00am 23.7 - - - - SE 20 24 11 13 1015.9 - -
19/12:30am 23.9 - - - - ESE 20 24 11 13 1016.1 - -
19/12:15am 24.0 - - - - ESE 20 - 11 - - 1015.9 -
19/12:00am 23.9 - - - - ESE 20 26 11 14 1016.3 - -
 
Date/Time
EST
Temp
°C
App
Temp
°C
Dew
Point
°C
Rel
Hum
%
Delta-T
°C
Wind Press
QNH
hPa
Press
MSL
hPa
Rain since
9am
mm
Dir  Spd
km/h
Gust
km/h
Spd
kts
Gust
kts
18/11:30pm 24.1 - - - - ESE 20 24 11 13 1016.6 - -
18/11:15pm 24.2 - - - - E 20 - 11 - - 1016.2 -
18/11:00pm 24.0 - - - - ESE 20 24 11 13 1016.5 - -
18/10:30pm 24.0 - - - - E 24 28 13 15 1016.5 - -
18/10:15pm 24.3 - - - - E 20 - 11 - - 1016.2 -
18/10:00pm 24.1 - - - - ESE 22 28 12 15 1016.6 - -
18/09:30pm 24.4 - - - - ESE 24 28 13 15 1016.7 - -
18/09:15pm 24.2 - - - - SE 24 - 13 - - 1016.5 -
18/09:00pm 24.2 - - - - SE 24 30 13 16 1016.8 - -
18/08:30pm 24.3 - - - - SE 24 28 13 15 1016.7 - -
18/08:15pm 24.3 - - - - SE 22 - 12 - - 1016.2 -
18/08:00pm 24.2 - - - - SE 22 28 12 15 1016.4 - -
18/07:30pm 24.4 - - - - SE 22 26 12 14 1015.9 - -
18/07:15pm 24.3 - - - - SE 22 - 12 - - 1015.4 -
18/07:00pm 24.3 - - - - SE 22 26 12 14 1015.5 - -
18/06:30pm 24.4 - - - - SE 20 26 11 14 1015.2 - -
18/06:15pm 24.3 - - - - SE 19 - 10 - - 1014.7 -
18/06:00pm 24.3 - - - - SE 19 24 10 13 1014.8 - -
18/05:30pm 24.5 - - - - SE 19 26 10 14 1014.6 - -
18/05:15pm 24.4 - - - - SE 19 - 10 - - 1014.3 -
18/05:00pm 24.4 - - - - SE 19 24 10 13 1014.4 - -
18/04:30pm 24.5 - - - - SE 19 24 10 13 1014.2 - -
18/04:15pm 24.5 - - - - SE 17 - 9 - - 1013.8 -
18/04:00pm 24.8 - - - - SE 17 20 9 11 1013.9 - -
18/03:30pm 24.6 - - - - SE 17 24 9 13 1013.8 - -
18/03:15pm 24.7 - - - - SE 17 - 9 - - 1013.5 -
18/03:00pm 24.6 - - - - SE 17 20 9 11 1013.8 - -
18/02:30pm 24.4 - - - - SE 19 20 10 11 1014.0 - -
18/02:15pm 24.6 - - - - SE 15 - 8 - - 1013.8 -
18/02:00pm 24.7 - - - - SE 15 19 8 10 1014.2 - -
18/01:30pm 24.5 - - - - ESE 15 19 8 10 1014.4 - -
18/01:15pm 24.3 - - - - ESE 17 - 9 - - 1014.3 -
18/01:00pm 24.5 - - - - ESE 17 22 9 12 1014.8 - -

Other Formats:

Comma delimited format used in spreadsheet applications
http://www.bom.gov.au/fwo/IDQ60801/IDQ60801.94289.axf

JavaScript Object Notation format (JSON) in row-major order
http://www.bom.gov.au/fwo/IDQ60801/IDQ60801.94289.json